Time;durP1;ratioP1;P1;durP2;ratioP2;P2;SDS_P1;SDS_P2;PMS_P1;PMS_P2;Temp;Humidity;BMP_temperature;BMP_pressure;BME280_temperature;BME280_humidity;BME280_pressure;Samples;Min_cycle;Max_cycle;Signal;HPM_P1;HPM_P2
2023/01/01 00:02:25;;;;;;;93.93;81.93;;;;;;;;;;5051971;28;20468;-76
2023/01/01 00:04:53;;;;;;;86.93;77.77;;;;;;;;;;5051578;28;20441;-74
2023/01/01 00:07:20;;;;;;;83.57;74.47;;;;;;;;;;5051997;28;20465;-76
2023/01/01 00:12:31;;;;;;;75.83;67.80;;;;;;;;;;5051474;28;20967;-75
2023/01/01 00:14:58;;;;;;;68.97;58.43;;;;;;;;;;5042285;28;20442;-74
2023/01/01 00:17:27;;;;;;;52.07;46.43;;;;;;;;;;5032064;28;20516;-74
2023/01/01 00:19:54;;;;;;;51.83;46.20;;;;;;;;;;5032709;28;20443;-77
2023/01/01 00:22:21;;;;;;;50.97;45.03;;;;;;;;;;5032411;28;20447;-76
2023/01/01 00:24:48;;;;;;;47.70;42.73;;;;;;;;;;5030613;28;20450;-76
2023/01/01 00:27:15;;;;;;;44.70;40.03;;;;;;;;;;5031431;28;20504;-74
2023/01/01 00:29:42;;;;;;;40.87;36.33;;;;;;;;;;5031368;28;20962;-76
2023/01/01 00:32:11;;;;;;;35.80;32.00;;;;;;;;;;5033428;28;20479;-76
2023/01/01 00:34:39;;;;;;;33.00;29.67;;;;;;;;;;5033553;28;20505;-74
2023/01/01 00:37:07;;;;;;;27.90;25.23;;;;;;;;;;5061103;28;20461;-75
2023/01/01 00:39:34;;;;;;;27.77;24.87;;;;;;;;;;5073622;28;20448;-74
2023/01/01 00:42:01;;;;;;;26.90;24.20;;;;;;;;;;5073334;28;20445;-75
2023/01/01 00:44:28;;;;;;;27.50;24.47;;;;;;;;;;5072248;28;20506;-75
2023/01/01 00:46:55;;;;;;;24.67;22.27;;;;;;;;;;5071341;28;20441;-75
2023/01/01 00:49:22;;;;;;;22.63;20.53;;;;;;;;;;5071720;28;20472;-75
2023/01/01 00:51:51;;;;;;;22.20;20.03;;;;;;;;;;5072168;28;20436;-75
2023/01/01 00:54:18;;;;;;;19.10;17.20;;;;;;;;;;5071516;28;20534;-75
2023/01/01 00:56:45;;;;;;;15.90;14.33;;;;;;;;;;5070783;28;20445;-75
2023/01/01 00:59:12;;;;;;;19.43;15.10;;;;;;;;;;5070331;28;20482;-74
2023/01/01 01:01:41;;;;;;;15.17;13.67;;;;;;;;;;5070587;28;20448;-74
2023/01/01 01:04:08;;;;;;;16.30;12.57;;;;;;;;;;5069958;28;20448;-75
2023/01/01 01:06:36;;;;;;;15.30;12.77;;;;;;;;;;5070229;28;20809;-76
2023/01/01 01:09:05;;;;;;;18.13;13.90;;;;;;;;;;5070284;28;20460;-75
2023/01/01 01:11:33;;;;;;;12.43;11.20;;;;;;;;;;5070305;28;20540;-76
2023/01/01 01:14:00;;;;;;;12.83;11.53;;;;;;;;;;5068804;28;20488;-75
2023/01/01 01:16:28;;;;;;;13.47;12.20;;;;;;;;;;5050072;28;20461;-75
2023/01/01 01:18:58;;;;;;;12.43;11.17;;;;;;;;;;5050003;28;20977;-76
2023/01/01 01:21:25;;;;;;;13.90;12.53;;;;;;;;;;5050381;28;20568;-75
2023/01/01 01:23:53;;;;;;;13.80;12.50;;;;;;;;;;5049924;28;20438;-76
2023/01/01 01:26:23;;;;;;;13.40;12.03;;;;;;;;;;5049826;28;20445;-75
2023/01/01 01:28:50;;;;;;;14.73;13.20;;;;;;;;;;5050252;28;20473;-76
2023/01/01 01:31:18;;;;;;;14.50;12.93;;;;;;;;;;5049922;28;20492;-75
2023/01/01 01:33:45;;;;;;;14.70;13.40;;;;;;;;;;5050101;28;20477;-76
2023/01/01 01:36:12;;;;;;;20.63;17.43;;;;;;;;;;5048984;28;20573;-74
2023/01/01 01:38:39;;;;;;;14.90;13.60;;;;;;;;;;5050090;28;20544;-75
2023/01/01 01:41:07;;;;;;;17.80;15.00;;;;;;;;;;5049924;28;20472;-77
2023/01/01 01:43:51;;;;;;;15.20;13.70;;;;;;;;;;5049860;28;20953;-76
2023/01/01 01:46:20;;;;;;;14.70;13.17;;;;;;;;;;5049910;28;20524;-76
2023/01/01 01:48:48;;;;;;;14.47;13.17;;;;;;;;;;5050135;28;20508;-74
2023/01/01 01:51:17;;;;;;;15.40;13.80;;;;;;;;;;5049944;28;20456;-75
2023/01/01 01:53:46;;;;;;;16.70;15.00;;;;;;;;;;5049532;28;20826;-77
2023/01/01 01:56:14;;;;;;;17.50;14.20;;;;;;;;;;5049640;28;20445;-77
2023/01/01 01:58:41;;;;;;;15.80;14.10;;;;;;;;;;5049882;28;20465;-76
2023/01/01 02:01:09;;;;;;;17.23;15.43;;;;;;;;;;5053664;28;20854;-75
2023/01/01 02:03:38;;;;;;;16.50;14.80;;;;;;;;;;5054298;28;20464;-75
2023/01/01 02:06:05;;;;;;;14.57;13.03;;;;;;;;;;5054563;28;20466;-75
2023/01/01 02:08:34;;;;;;;16.20;14.60;;;;;;;;;;5053703;28;20469;-75
2023/01/01 02:11:01;;;;;;;14.67;12.60;;;;;;;;;;5053886;28;20445;-76
2023/01/01 02:13:28;;;;;;;14.33;12.90;;;;;;;;;;5051308;28;20484;-76
2023/01/01 02:15:57;;;;;;;16.00;14.30;;;;;;;;;;5049654;28;20438;-75
2023/01/01 02:18:30;;;;;;;15.70;14.10;;;;;;;;;;5049748;28;20465;-76
2023/01/01 02:21:00;;;;;;;14.93;13.33;;;;;;;;;;5049612;28;20441;-76
2023/01/01 02:23:43;;;;;;;16.80;14.00;;;;;;;;;;5049519;28;20452;-77
2023/01/01 02:26:18;;;;;;;15.03;12.63;;;;;;;;;;5049232;28;20977;-76
2023/01/01 02:28:52;;;;;;;14.93;13.40;;;;;;;;;;5049445;28;20487;-76
2023/01/01 02:31:23;;;;;;;14.27;12.97;;;;;;;;;;5049463;28;20453;-75
2023/01/01 02:33:51;;;;;;;15.87;14.27;;;;;;;;;;5049077;28;20996;-75
2023/01/01 02:36:19;;;;;;;17.50;15.80;;;;;;;;;;5049448;28;20813;-76
2023/01/01 02:38:48;;;;;;;17.73;15.90;;;;;;;;;;5049451;28;20465;-76
2023/01/01 02:41:18;;;;;;;18.63;16.60;;;;;;;;;;5049258;28;20948;-76
2023/01/01 02:43:45;;;;;;;21.57;18.07;;;;;;;;;;5048608;28;20453;-75
2023/01/01 02:46:14;;;;;;;19.27;17.17;;;;;;;;;;5049615;28;20440;-76
2023/01/01 02:48:42;;;;;;;18.47;16.57;;;;;;;;;;5053342;28;20461;-76
2023/01/01 02:51:14;;;;;;;16.10;14.40;;;;;;;;;;5053146;28;20448;-74
2023/01/01 02:53:43;;;;;;;16.37;14.77;;;;;;;;;;5052430;28;20477;-75
2023/01/01 02:56:15;;;;;;;17.40;14.70;;;;;;;;;;5051050;28;20573;-75
2023/01/01 03:01:37;;;;;;;17.03;14.73;;;;;;;;;;5052000;28;20549;-75
2023/01/01 03:04:08;;;;;;;16.17;14.50;;;;;;;;;;5051131;28;20450;-75
2023/01/01 03:06:39;;;;;;;16.60;15.03;;;;;;;;;;5050708;28;20437;-76
2023/01/01 03:09:12;;;;;;;16.63;14.93;;;;;;;;;;5050109;28;20473;-75
2023/01/01 03:11:45;;;;;;;16.07;14.30;;;;;;;;;;5051567;28;20441;-75
2023/01/01 03:14:14;;;;;;;18.57;15.77;;;;;;;;;;5048626;28;20482;-74
2023/01/01 03:16:45;;;;;;;17.40;15.23;;;;;;;;;;5030767;28;20457;-74
2023/01/01 03:19:14;;;;;;;19.30;17.40;;;;;;;;;;5030449;28;20454;-75
2023/01/01 03:21:42;;;;;;;17.80;15.77;;;;;;;;;;5030277;28;20453;-75
2023/01/01 03:24:12;;;;;;;17.93;16.03;;;;;;;;;;5030003;28;20454;-75
2023/01/01 03:26:40;;;;;;;17.97;14.47;;;;;;;;;;5040412;28;20453;-75
2023/01/01 03:29:09;;;;;;;15.27;13.67;;;;;;;;;;5051806;28;20504;-74
2023/01/01 03:31:36;;;;;;;15.20;13.70;;;;;;;;;;5059178;28;20445;-76
2023/01/01 03:34:06;;;;;;;13.37;12.07;;;;;;;;;;5060695;28;20477;-76
2023/01/01 03:36:36;;;;;;;14.87;13.37;;;;;;;;;;5053894;28;20446;-75
2023/01/01 03:39:05;;;;;;;17.10;14.20;;;;;;;;;;5050453;28;20469;-75
2023/01/01 03:41:34;;;;;;;14.33;10.60;;;;;;;;;;5049919;28;20442;-74
2023/01/01 03:44:04;;;;;;;13.13;11.77;;;;;;;;;;5049368;28;21238;-75
2023/01/01 03:46:34;;;;;;;11.40;10.23;;;;;;;;;;5049577;28;20445;-75
2023/01/01 03:49:01;;;;;;;10.10;9.13;;;;;;;;;;5049741;28;20465;-75
2023/01/01 03:51:34;;;;;;;9.43;8.50;;;;;;;;;;5049787;28;21039;-75
2023/01/01 03:54:03;;;;;;;11.40;9.60;;;;;;;;;;5049464;28;20473;-75
2023/01/01 03:56:35;;;;;;;12.87;11.43;;;;;;;;;;5049594;28;20493;-75
2023/01/01 03:59:06;;;;;;;12.70;9.90;;;;;;;;;;5048490;28;20465;-75
2023/01/01 04:01:35;;;;;;;13.00;10.70;;;;;;;;;;5049444;28;20453;-76
2023/01/01 04:04:04;;;;;;;16.73;12.50;;;;;;;;;;5049161;28;20541;-75
2023/01/01 04:06:34;;;;;;;14.87;12.80;;;;;;;;;;5049423;28;20445;-76
2023/01/01 04:09:02;;;;;;;15.70;12.63;;;;;;;;;;5048832;28;20511;-75
2023/01/01 04:14:15;;;;;;;11.40;10.20;;;;;;;;;;5048977;28;20563;-76
2023/01/01 04:16:42;;;;;;;9.10;8.23;;;;;;;;;;5049058;28;20441;-75
2023/01/01 04:19:09;;;;;;;9.50;8.53;;;;;;;;;;5049087;28;20470;-75
2023/01/01 04:21:37;;;;;;;8.93;8.03;;;;;;;;;;5049055;28;20434;-75
2023/01/01 04:24:04;;;;;;;9.77;8.80;;;;;;;;;;5048582;28;20460;-75
2023/01/01 04:26:31;;;;;;;9.50;8.00;;;;;;;;;;5048961;28;20460;-74
2023/01/01 04:28:58;;;;;;;9.80;8.07;;;;;;;;;;5049127;28;20473;-75
2023/01/01 04:31:25;;;;;;;9.73;7.70;;;;;;;;;;5048913;28;20445;-76
2023/01/01 04:33:54;;;;;;;8.00;6.80;;;;;;;;;;5048232;28;21024;-76
2023/01/01 04:36:21;;;;;;;8.90;7.60;;;;;;;;;;5048696;28;20457;-74
2023/01/01 04:38:49;;;;;;;11.67;7.40;;;;;;;;;;5048287;28;20470;-75
2023/01/01 04:41:16;;;;;;;9.37;7.13;;;;;;;;;;5048623;28;20461;-75
2023/01/01 04:43:48;;;;;;;7.60;6.90;;;;;;;;;;5048553;28;20444;-78
2023/01/01 04:46:15;;;;;;;6.40;5.80;;;;;;;;;;5048977;28;20430;-75
2023/01/01 04:48:42;;;;;;;7.20;6.50;;;;;;;;;;5048580;28;20979;-76
2023/01/01 04:51:10;;;;;;;9.57;6.67;;;;;;;;;;5048340;28;20453;-75
2023/01/01 04:53:38;;;;;;;7.70;7.00;;;;;;;;;;5048537;28;21140;-75
2023/01/01 04:56:06;;;;;;;8.80;6.57;;;;;;;;;;5048318;28;20952;-76
2023/01/01 04:58:34;;;;;;;7.43;6.37;;;;;;;;;;5048941;28;20462;-76
2023/01/01 05:01:01;;;;;;;7.03;6.33;;;;;;;;;;5048857;28;20449;-77
2023/01/01 05:03:28;;;;;;;6.37;5.77;;;;;;;;;;5048556;28;20446;-73
2023/01/01 05:06:01;;;;;;;7.70;6.47;;;;;;;;;;5048542;28;20453;-75
2023/01/01 05:08:28;;;;;;;6.03;5.33;;;;;;;;;;5048683;28;20469;-74
2023/01/01 05:11:00;;;;;;;6.60;5.97;;;;;;;;;;5048591;28;20444;-75
2023/01/01 05:13:28;;;;;;;6.17;5.57;;;;;;;;;;5047798;28;21001;-76
2023/01/01 05:15:55;;;;;;;8.03;5.93;;;;;;;;;;5031053;28;20451;-75
2023/01/01 05:18:22;;;;;;;8.50;7.60;;;;;;;;;;5028196;28;20478;-75
2023/01/01 05:20:49;;;;;;;7.27;6.53;;;;;;;;;;5028286;28;20450;-74
2023/01/01 05:23:17;;;;;;;7.20;6.50;;;;;;;;;;5028124;28;20841;-74
2023/01/01 05:25:44;;;;;;;6.33;5.73;;;;;;;;;;5028268;28;20482;-76
2023/01/01 05:28:11;;;;;;;6.33;5.73;;;;;;;;;;5032012;28;20481;-75
2023/01/01 05:30:41;;;;;;;7.20;6.30;;;;;;;;;;5038323;28;20459;-75
2023/01/01 05:33:08;;;;;;;6.30;5.70;;;;;;;;;;5030975;28;20439;-75
2023/01/01 05:35:35;;;;;;;6.70;5.93;;;;;;;;;;5030241;28;20543;-76
2023/01/01 05:38:02;;;;;;;5.70;5.20;;;;;;;;;;5030931;28;20462;-73
2023/01/01 05:40:29;;;;;;;6.20;5.60;;;;;;;;;;5029604;28;20856;-74
2023/01/01 05:42:57;;;;;;;6.57;5.97;;;;;;;;;;5028720;28;21037;-76
2023/01/01 05:45:24;;;;;;;5.70;5.00;;;;;;;;;;5032895;28;20445;-76
2023/01/01 05:47:52;;;;;;;6.40;5.23;;;;;;;;;;5032984;28;20482;-74
2023/01/01 05:50:19;;;;;;;6.87;5.87;;;;;;;;;;5040509;28;20446;-74
2023/01/01 05:52:46;;;;;;;5.90;5.20;;;;;;;;;;5040656;28;20450;-73
2023/01/01 05:55:13;;;;;;;8.57;5.50;;;;;;;;;;5038924;28;20474;-74
2023/01/01 05:57:40;;;;;;;5.40;4.80;;;;;;;;;;5043375;28;20512;-75
2023/01/01 06:00:08;;;;;;;6.57;5.60;;;;;;;;;;5043151;28;20438;-74
2023/01/01 06:02:35;;;;;;;5.90;5.30;;;;;;;;;;5043664;28;20446;-75
2023/01/01 06:05:04;;;;;;;4.93;4.43;;;;;;;;;;5041628;28;20446;-74
2023/01/01 06:07:31;;;;;;;6.03;5.43;;;;;;;;;;5043977;28;20470;-74
2023/01/01 06:09:58;;;;;;;5.40;4.90;;;;;;;;;;5041898;28;20453;-74
2023/01/01 06:12:25;;;;;;;5.20;4.50;;;;;;;;;;5034862;28;20450;-75
2023/01/01 06:14:52;;;;;;;5.73;5.10;;;;;;;;;;5048974;28;20474;-74
2023/01/01 06:17:19;;;;;;;5.73;4.80;;;;;;;;;;5064749;28;20453;-73
2023/01/01 06:19:47;;;;;;;5.47;4.93;;;;;;;;;;5063125;28;20437;-74
2023/01/01 06:22:15;;;;;;;5.90;5.30;;;;;;;;;;5067100;28;20468;-74
2023/01/01 06:24:42;;;;;;;5.30;4.60;;;;;;;;;;5064061;28;20441;-75
2023/01/01 06:27:09;;;;;;;5.10;4.70;;;;;;;;;;5060067;28;20480;-76
2023/01/01 06:29:36;;;;;;;5.23;4.73;;;;;;;;;;5067995;28;21256;-73
2023/01/01 06:32:03;;;;;;;6.40;5.80;;;;;;;;;;5069998;28;20441;-74
2023/01/01 06:34:30;;;;;;;4.87;4.47;;;;;;;;;;5069472;28;20481;-75
2023/01/01 06:36:57;;;;;;;5.60;4.90;;;;;;;;;;5069479;28;20449;-75
2023/01/01 06:39:26;;;;;;;6.17;5.57;;;;;;;;;;5069697;28;20445;-74
2023/01/01 06:41:53;;;;;;;6.73;4.97;;;;;;;;;;5070041;28;20449;-74
2023/01/01 06:44:20;;;;;;;5.50;4.90;;;;;;;;;;5070136;28;20434;-74
2023/01/01 06:46:47;;;;;;;4.83;4.40;;;;;;;;;;5069938;28;20433;-75
2023/01/01 06:49:14;;;;;;;6.20;5.50;;;;;;;;;;5069967;28;20683;-74
2023/01/01 06:51:42;;;;;;;6.23;5.63;;;;;;;;;;5071716;28;20445;-75
2023/01/01 06:54:10;;;;;;;4.73;4.13;;;;;;;;;;5071204;28;20484;-74
2023/01/01 06:56:38;;;;;;;5.23;4.73;;;;;;;;;;5071180;28;20452;-76
2023/01/01 06:59:05;;;;;;;5.30;4.80;;;;;;;;;;5071978;28;20473;-76
2023/01/01 07:01:34;;;;;;;5.37;4.87;;;;;;;;;;5070918;28;20449;-75
2023/01/01 07:04:02;;;;;;;4.93;4.43;;;;;;;;;;5070044;28;20453;-74
2023/01/01 07:06:30;;;;;;;5.37;4.87;;;;;;;;;;5061555;28;20441;-75
2023/01/01 07:08:57;;;;;;;4.83;4.30;;;;;;;;;;5063634;28;20484;-75
2023/01/01 07:11:24;;;;;;;5.97;4.47;;;;;;;;;;5067185;28;20445;-75
2023/01/01 07:13:53;;;;;;;5.47;4.87;;;;;;;;;;5068332;28;20430;-74
2023/01/01 07:16:20;;;;;;;4.33;3.40;;;;;;;;;;5053481;28;20594;-74
2023/01/01 07:18:47;;;;;;;7.00;5.10;;;;;;;;;;5063495;28;20461;-75
2023/01/01 07:21:36;;;;;;;5.40;4.50;;;;;;;;;;5062094;28;20449;-74
2023/01/01 07:24:04;;;;;;;4.70;4.30;;;;;;;;;;5056829;28;20476;-75
2023/01/01 07:26:31;;;;;;;5.20;4.70;;;;;;;;;;5060077;28;20528;-76
2023/01/01 07:29:00;;;;;;;4.63;4.23;;;;;;;;;;5065180;28;20462;-75
2023/01/01 07:31:27;;;;;;;4.43;4.03;;;;;;;;;;5056821;28;20450;-77
2023/01/01 07:33:54;;;;;;;6.07;5.03;;;;;;;;;;5059416;28;20784;-73
2023/01/01 07:36:21;;;;;;;4.97;4.57;;;;;;;;;;5059059;28;20484;-74
2023/01/01 07:38:48;;;;;;;4.93;4.53;;;;;;;;;;5051574;28;20482;-75
2023/01/01 07:41:15;;;;;;;7.60;4.50;;;;;;;;;;5055030;28;20550;-75
2023/01/01 07:43:42;;;;;;;4.80;4.33;;;;;;;;;;5049869;28;20465;-77
2023/01/01 07:46:12;;;;;;;4.80;4.27;;;;;;;;;;5049859;28;20464;-75
2023/01/01 07:48:39;;;;;;;4.50;4.10;;;;;;;;;;5058318;28;20469;-76
2023/01/01 07:51:06;;;;;;;4.73;4.20;;;;;;;;;;5063367;28;20480;-74
2023/01/01 07:53:34;;;;;;;4.93;4.40;;;;;;;;;;5062721;28;20483;-75
2023/01/01 07:56:01;;;;;;;4.43;4.03;;;;;;;;;;5064035;28;20477;-74
2023/01/01 07:58:28;;;;;;;6.17;4.90;;;;;;;;;;5061956;28;20457;-75
2023/01/01 08:00:55;;;;;;;4.23;3.83;;;;;;;;;;5062504;28;20441;-77
2023/01/01 08:03:23;;;;;;;4.77;4.20;;;;;;;;;;5062772;28;20434;-75
2023/01/01 08:05:51;;;;;;;4.93;4.33;;;;;;;;;;5057258;28;20438;-75
2023/01/01 08:08:18;;;;;;;4.83;4.30;;;;;;;;;;5047342;28;20611;-76
2023/01/01 08:10:45;;;;;;;5.07;4.57;;;;;;;;;;5049711;28;20435;-76
2023/01/01 08:13:12;;;;;;;5.60;4.80;;;;;;;;;;5043987;28;20453;-75
2023/01/01 08:15:39;;;;;;;5.17;4.67;;;;;;;;;;5054496;28;20477;-74
2023/01/01 08:18:06;;;;;;;5.33;4.90;;;;;;;;;;5056970;28;20457;-75
2023/01/01 08:20:35;;;;;;;4.63;4.10;;;;;;;;;;5065956;28;20468;-76
2023/01/01 08:23:02;;;;;;;5.33;4.83;;;;;;;;;;5065401;28;20597;-75
2023/01/01 08:25:29;;;;;;;6.00;4.50;;;;;;;;;;5064347;28;20532;-75
2023/01/01 08:27:56;;;;;;;4.90;4.50;;;;;;;;;;5063303;28;20485;-74
2023/01/01 08:30:23;;;;;;;5.73;5.00;;;;;;;;;;5064466;28;20910;-75
2023/01/01 08:32:50;;;;;;;5.17;4.50;;;;;;;;;;5064220;28;20453;-74
2023/01/01 08:35:17;;;;;;;6.23;5.63;;;;;;;;;;5063707;28;20484;-75
2023/01/01 08:37:45;;;;;;;6.63;5.50;;;;;;;;;;5061641;28;20461;-75
2023/01/01 08:40:13;;;;;;;5.90;5.30;;;;;;;;;;5060246;28;20445;-75
2023/01/01 08:42:40;;;;;;;5.87;5.37;;;;;;;;;;5058666;28;20969;-74
2023/01/01 08:45:08;;;;;;;5.83;5.20;;;;;;;;;;5059874;28;20442;-74
2023/01/01 08:47:35;;;;;;;5.97;5.37;;;;;;;;;;5062311;28;20480;-76
2023/01/01 08:50:02;;;;;;;6.30;5.60;;;;;;;;;;5062708;28;20438;-74
2023/01/01 08:52:29;;;;;;;4.60;4.20;;;;;;;;;;5061005;28;20956;-76
2023/01/01 08:54:58;;;;;;;4.60;3.90;;;;;;;;;;5060491;28;20477;-76
2023/01/01 08:57:25;;;;;;;4.40;4.00;;;;;;;;;;5060599;28;20449;-74
2023/01/01 08:59:52;;;;;;;4.33;3.93;;;;;;;;;;5056407;28;21087;-75
2023/01/01 09:02:19;;;;;;;5.10;4.53;;;;;;;;;;5062136;28;20449;-75
2023/01/01 09:04:46;;;;;;;5.50;5.00;;;;;;;;;;5062702;28;20445;-73
2023/01/01 09:07:13;;;;;;;6.00;5.50;;;;;;;;;;5062164;28;20488;-74
2023/01/01 09:09:40;;;;;;;5.60;5.10;;;;;;;;;;5061646;28;20442;-75
2023/01/01 09:12:11;;;;;;;5.43;4.93;;;;;;;;;;5056690;28;20449;-75
2023/01/01 09:14:38;;;;;;;5.27;4.87;;;;;;;;;;5049818;28;20455;-74
2023/01/01 09:17:05;;;;;;;5.30;4.80;;;;;;;;;;5039866;28;20525;-75
2023/01/01 09:19:32;;;;;;;7.57;5.03;;;;;;;;;;5034703;28;20458;-75
2023/01/01 09:21:59;;;;;;;5.73;5.13;;;;;;;;;;5037030;28;20505;-73
2023/01/01 09:24:26;;;;;;;5.30;4.80;;;;;;;;;;5043235;28;20454;-75
2023/01/01 09:26:53;;;;;;;4.70;4.30;;;;;;;;;;5044109;28;20451;-75
2023/01/01 09:29:21;;;;;;;4.60;4.20;;;;;;;;;;5045954;28;20450;-77
2023/01/01 09:31:49;;;;;;;4.93;4.43;;;;;;;;;;5045291;28;20442;-76
2023/01/01 09:34:16;;;;;;;4.20;3.80;;;;;;;;;;5044898;28;20510;-74
2023/01/01 09:36:43;;;;;;;6.40;5.00;;;;;;;;;;5038184;28;20493;-75
2023/01/01 09:39:11;;;;;;;4.50;4.10;;;;;;;;;;5030309;28;20450;-75
2023/01/01 09:41:44;;;;;;;3.97;3.53;;;;;;;;;;5030209;28;20869;-76
2023/01/01 09:44:18;;;;;;;5.57;3.73;;;;;;;;;;5029816;28;20459;-76
2023/01/01 09:46:46;;;;;;;5.30;3.50;;;;;;;;;;5030131;28;20447;-75
2023/01/01 09:49:17;;;;;;;3.70;3.43;;;;;;;;;;5031042;28;20849;-75
2023/01/01 09:51:46;;;;;;;4.90;3.27;;;;;;;;;;5030088;28;21156;-75
2023/01/01 09:54:27;;;;;;;3.83;3.53;;;;;;;;;;5030098;28;20453;-75
2023/01/01 09:56:55;;;;;;;4.20;3.80;;;;;;;;;;5029022;28;20491;-75
2023/01/01 09:59:22;;;;;;;6.17;4.03;;;;;;;;;;5029737;28;20451;-75
2023/01/01 10:01:55;;;;;;;4.17;3.87;;;;;;;;;;5029603;28;20450;-76
2023/01/01 10:04:30;;;;;;;3.77;3.47;;;;;;;;;;5029729;28;20439;-76
2023/01/01 10:07:00;;;;;;;3.80;3.37;;;;;;;;;;5029867;28;20434;-74
2023/01/01 10:09:30;;;;;;;4.60;3.20;;;;;;;;;;5029827;28;20446;-76
2023/01/01 10:12:01;;;;;;;4.00;3.60;;;;;;;;;;5029547;28;20930;-74
2023/01/01 10:14:31;;;;;;;4.13;3.40;;;;;;;;;;5034254;28;20438;-74
2023/01/01 10:17:00;;;;;;;4.70;3.73;;;;;;;;;;5049464;28;20489;-76
2023/01/01 10:19:31;;;;;;;7.13;3.63;;;;;;;;;;5049199;28;20450;-75
2023/01/01 10:22:01;;;;;;;5.07;4.43;;;;;;;;;;5049407;28;20449;-74
2023/01/01 10:24:33;;;;;;;4.17;3.83;;;;;;;;;;5048964;28;20521;-75
2023/01/01 10:27:02;;;;;;;4.70;3.77;;;;;;;;;;5048985;28;20937;-73
2023/01/01 10:29:33;;;;;;;3.57;3.30;;;;;;;;;;5049229;28;20575;-76
2023/01/01 10:32:06;;;;;;;5.47;3.53;;;;;;;;;;5049219;28;20438;-75
2023/01/01 10:34:33;;;;;;;5.03;3.70;;;;;;;;;;5049193;28;20534;-75
2023/01/01 10:37:01;;;;;;;3.80;3.40;;;;;;;;;;5049171;28;20477;-75
2023/01/01 10:39:28;;;;;;;4.30;4.00;;;;;;;;;;5049621;28;20449;-76
2023/01/01 10:41:57;;;;;;;3.90;3.50;;;;;;;;;;5049814;28;20454;-75
2023/01/01 10:44:27;;;;;;;5.23;3.30;;;;;;;;;;5049538;28;20442;-76
2023/01/01 10:46:57;;;;;;;4.10;3.70;;;;;;;;;;5049327;28;20441;-75
2023/01/01 10:49:25;;;;;;;7.40;3.67;;;;;;;;;;5049363;28;21018;-75
2023/01/01 10:51:53;;;;;;;5.43;3.60;;;;;;;;;;5049321;28;20866;-74
2023/01/01 10:54:32;;;;;;;3.80;3.47;;;;;;;;;;5049222;28;20769;-75
2023/01/01 10:56:59;;;;;;;4.43;3.50;;;;;;;;;;5049026;28;20658;-76
2023/01/01 10:59:37;;;;;;;7.90;4.00;;;;;;;;;;5049256;28;20442;-75
2023/01/01 11:02:19;;;;;;;3.80;3.50;;;;;;;;;;5048995;28;20468;-75
2023/01/01 11:04:47;;;;;;;4.17;3.77;;;;;;;;;;5047161;28;20476;-75
2023/01/01 11:07:20;;;;;;;5.80;3.70;;;;;;;;;;5049565;28;20465;-75
2023/01/01 11:09:49;;;;;;;4.30;3.23;;;;;;;;;;5053803;28;20468;-75
2023/01/01 11:12:19;;;;;;;4.60;4.20;;;;;;;;;;5052680;28;20726;-75
2023/01/01 11:14:49;;;;;;;7.57;3.67;;;;;;;;;;5044942;28;21064;-74
2023/01/01 11:17:21;;;;;;;4.13;3.30;;;;;;;;;;5032608;28;20490;-76
2023/01/01 11:19:50;;;;;;;5.10;3.37;;;;;;;;;;5032740;28;20450;-75
2023/01/01 11:22:35;;;;;;;3.27;3.00;;;;;;;;;;5032688;28;20441;-76
2023/01/01 11:25:03;;;;;;;4.10;3.60;;;;;;;;;;5032923;28;20492;-74
2023/01/01 11:27:30;;;;;;;4.77;3.77;;;;;;;;;;5032515;28;20470;-76
2023/01/01 11:30:14;;;;;;;4.50;3.30;;;;;;;;;;5032814;28;20457;-76
2023/01/01 11:32:41;;;;;;;4.27;3.23;;;;;;;;;;5032297;28;20489;-75
2023/01/01 11:35:18;;;;;;;3.80;3.13;;;;;;;;;;5032763;28;20450;-75
2023/01/01 11:37:46;;;;;;;4.17;3.20;;;;;;;;;;5032449;28;20465;-76
2023/01/01 11:40:17;;;;;;;7.43;3.70;;;;;;;;;;5032675;28;20462;-76
2023/01/01 11:42:46;;;;;;;5.70;3.57;;;;;;;;;;5032296;28;20458;-75
2023/01/01 11:45:19;;;;;;;4.57;3.80;;;;;;;;;;5032307;28;20944;-75
2023/01/01 11:47:50;;;;;;;4.27;3.40;;;;;;;;;;5032960;28;20466;-76
2023/01/01 11:50:24;;;;;;;5.10;4.00;;;;;;;;;;5033728;28;20450;-75
2023/01/01 11:52:52;;;;;;;5.20;3.17;;;;;;;;;;5034288;28;20465;-74
2023/01/01 11:55:22;;;;;;;3.70;3.17;;;;;;;;;;5033721;28;20443;-75
2023/01/01 11:57:56;;;;;;;4.10;3.40;;;;;;;;;;5033308;28;20549;-75
2023/01/01 12:00:23;;;;;;;4.70;3.70;;;;;;;;;;5032451;28;20930;-76
2023/01/01 12:02:53;;;;;;;5.27;3.50;;;;;;;;;;5034957;28;20529;-75
2023/01/01 12:05:24;;;;;;;6.00;3.50;;;;;;;;;;5040766;28;20446;-76
2023/01/01 12:07:52;;;;;;;4.37;3.30;;;;;;;;;;5045624;28;20455;-74
2023/01/01 12:10:22;;;;;;;4.27;3.40;;;;;;;;;;5038060;28;20446;-75
2023/01/01 12:12:52;;;;;;;4.37;3.97;;;;;;;;;;5033614;28;20454;-76
2023/01/01 12:15:21;;;;;;;5.03;3.50;;;;;;;;;;5053676;28;20715;-75
2023/01/01 12:17:50;;;;;;;3.87;3.00;;;;;;;;;;5064815;28;20492;-75
2023/01/01 12:20:20;;;;;;;4.57;3.60;;;;;;;;;;5058903;28;20857;-76
2023/01/01 12:22:49;;;;;;;4.40;3.30;;;;;;;;;;5053530;28;20488;-75
2023/01/01 12:25:19;;;;;;;4.33;3.23;;;;;;;;;;5051571;28;20442;-76
2023/01/01 12:27:55;;;;;;;5.27;3.67;;;;;;;;;;5052041;28;20821;-76
2023/01/01 12:30:24;;;;;;;5.50;3.13;;;;;;;;;;5051614;28;20449;-75
2023/01/01 12:33:04;;;;;;;5.13;3.10;;;;;;;;;;5050997;28;20449;-75
2023/01/01 12:35:37;;;;;;;4.33;3.53;;;;;;;;;;5051908;28;20567;-75
2023/01/01 12:38:12;;;;;;;4.70;3.10;;;;;;;;;;5052246;28;20940;-75
2023/01/01 12:40:40;;;;;;;4.57;4.17;;;;;;;;;;5051283;28;20445;-75
2023/01/01 12:43:10;;;;;;;4.33;3.37;;;;;;;;;;5050659;28;20453;-77
2023/01/01 12:46:01;;;;;;;3.97;3.33;;;;;;;;;;5051273;28;20452;-75
2023/01/01 12:48:34;;;;;;;4.10;2.93;;;;;;;;;;5050489;28;20976;-76
2023/01/01 12:51:03;;;;;;;4.60;3.60;;;;;;;;;;5051231;28;20452;-76
2023/01/01 12:53:35;;;;;;;7.90;3.43;;;;;;;;;;5050505;28;20963;-75
2023/01/01 12:56:10;;;;;;;5.40;3.40;;;;;;;;;;5050433;28;20448;-76
2023/01/01 12:58:38;;;;;;;4.43;3.00;;;;;;;;;;5057205;28;21060;-76
2023/01/01 13:01:08;;;;;;;3.63;2.50;;;;;;;;;;5058863;28;20441;-75
2023/01/01 13:03:37;;;;;;;4.43;3.03;;;;;;;;;;5057698;28;20453;-75
2023/01/01 13:06:05;;;;;;;4.53;2.80;;;;;;;;;;5051355;28;20452;-75
2023/01/01 13:08:34;;;;;;;5.37;3.10;;;;;;;;;;5050680;28;20466;-74
2023/01/01 13:11:03;;;;;;;5.83;3.30;;;;;;;;;;5050544;28;20441;-76
2023/01/01 13:13:30;;;;;;;4.87;2.87;;;;;;;;;;5050532;28;20536;-75
2023/01/01 13:15:57;;;;;;;5.43;2.77;;;;;;;;;;5033609;28;20450;-74
2023/01/01 13:18:26;;;;;;;2.60;2.37;;;;;;;;;;5033668;28;20831;-75
2023/01/01 13:21:02;;;;;;;4.93;2.50;;;;;;;;;;5030383;28;20446;-75
2023/01/01 13:23:46;;;;;;;5.30;2.60;;;;;;;;;;5031153;28;20435;-75
2023/01/01 13:26:32;;;;;;;2.87;2.63;;;;;;;;;;5032304;28;20442;-75
2023/01/01 13:29:17;;;;;;;5.53;2.90;;;;;;;;;;5034199;28;20478;-77
2023/01/01 13:32:00;;;;;;;4.50;2.77;;;;;;;;;;5036037;28;20461;-75
2023/01/01 13:34:36;;;;;;;5.10;2.57;;;;;;;;;;5036660;28;20446;-76
2023/01/01 13:37:21;;;;;;;10.00;2.93;;;;;;;;;;5034021;28;20539;-75
2023/01/01 13:39:53;;;;;;;3.87;3.00;;;;;;;;;;5030191;28;20512;-75
2023/01/01 13:42:43;;;;;;;4.30;3.20;;;;;;;;;;5030065;28;20521;-76
2023/01/01 13:45:15;;;;;;;7.33;3.30;;;;;;;;;;5030524;28;20447;-76
2023/01/01 13:47:51;;;;;;;3.77;3.37;;;;;;;;;;5030364;28;20458;-74
2023/01/01 13:50:20;;;;;;;4.80;2.80;;;;;;;;;;5030379;28;20427;-76
2023/01/01 13:52:56;;;;;;;3.33;2.60;;;;;;;;;;5029765;28;20531;-75
2023/01/01 13:55:39;;;;;;;5.07;3.10;;;;;;;;;;5030303;28;20472;-77
2023/01/01 13:58:23;;;;;;;4.33;3.27;;;;;;;;;;5030081;28;20485;-76
2023/01/01 14:01:06;;;;;;;4.13;2.70;;;;;;;;;;5030592;28;20450;-76
2023/01/01 14:03:37;;;;;;;7.40;3.90;;;;;;;;;;5030050;28;20434;-75
2023/01/01 14:06:07;;;;;;;5.77;3.30;;;;;;;;;;5029938;28;20953;-75
2023/01/01 14:08:35;;;;;;;4.67;2.80;;;;;;;;;;5029686;28;20473;-75
2023/01/01 14:11:04;;;;;;;7.30;3.00;;;;;;;;;;5029713;28;20454;-75
2023/01/01 14:13:39;;;;;;;4.00;3.20;;;;;;;;;;5029775;28;20451;-74
2023/01/01 14:16:09;;;;;;;6.03;3.10;;;;;;;;;;5047731;28;20970;-75
2023/01/01 14:18:38;;;;;;;9.17;3.47;;;;;;;;;;5050083;28;20461;-75
2023/01/01 14:21:09;;;;;;;5.43;3.50;;;;;;;;;;5049597;28;20827;-75
2023/01/01 14:23:37;;;;;;;5.90;3.67;;;;;;;;;;5049977;28;20430;-75
2023/01/01 14:26:08;;;;;;;8.13;3.83;;;;;;;;;;5049524;28;20441;-75
2023/01/01 14:28:36;;;;;;;3.70;3.50;;;;;;;;;;5049846;28;20464;-75
2023/01/01 14:31:05;;;;;;;7.43;4.17;;;;;;;;;;5049627;28;20444;-75
2023/01/01 14:33:33;;;;;;;5.10;4.57;;;;;;;;;;5049258;28;20536;-75
2023/01/01 14:36:01;;;;;;;82.33;73.93;;;;;;;;;;5049715;28;20441;-75
2023/01/01 14:38:29;;;;;;;14.33;12.83;;;;;;;;;;5049933;28;21046;-75
2023/01/01 14:41:04;;;;;;;4.70;3.60;;;;;;;;;;5049588;28;20446;-76
2023/01/01 14:43:33;;;;;;;7.50;4.40;;;;;;;;;;5052452;28;20452;-76
2023/01/01 14:46:00;;;;;;;6.03;3.60;;;;;;;;;;5053643;28;20803;-75
2023/01/01 14:48:27;;;;;;;5.30;3.80;;;;;;;;;;5055154;28;20461;-75
2023/01/01 14:50:54;;;;;;;6.97;4.67;;;;;;;;;;5054603;28;20929;-75
2023/01/01 14:53:25;;;;;;;5.00;4.20;;;;;;;;;;5052943;28;20794;-75
2023/01/01 14:55:52;;;;;;;6.73;4.60;;;;;;;;;;5053526;28;20480;-75
2023/01/01 14:58:20;;;;;;;6.13;3.87;;;;;;;;;;5053174;28;20495;-74